Time;durP1;ratioP1;P1;durP2;ratioP2;P2;SDS_P1;SDS_P2;PMS_P1;PMS_P2;Temp;Humidity;BMP_temperature;BMP_pressure;BME280_temperature;BME280_humidity;BME280_pressure;Samples;Min_cycle;Max_cycle;Signal;HPM_P1;HPM_P2
2024/01/17 00:00:17;;;;;;;26.73;9.37;;;;;;;;;;4909897;29;20421;-56
2024/01/17 00:02:43;;;;;;;23.50;9.00;;;;;;;;;;4911251;29;20551;-52
2024/01/17 00:05:10;;;;;;;27.33;8.87;;;;;;;;;;4895339;29;20428;-51
2024/01/17 00:07:36;;;;;;;20.40;8.17;;;;;;;;;;4903507;29;20516;-52
2024/01/17 00:10:03;;;;;;;20.60;8.13;;;;;;;;;;4914493;29;20423;-52
2024/01/17 00:12:30;;;;;;;32.33;8.47;;;;;;;;;;4914820;29;20428;-52
2024/01/17 00:14:56;;;;;;;19.43;7.70;;;;;;;;;;4898139;29;20856;-53
2024/01/17 00:20:25;;;;;;;28.77;8.10;;;;;;;;;;4903563;29;20480;-52
2024/01/17 00:22:51;;;;;;;22.03;7.10;;;;;;;;;;4895375;29;20520;-55
2024/01/17 00:25:17;;;;;;;19.80;7.20;;;;;;;;;;4900051;29;20507;-54
2024/01/17 00:27:43;;;;;;;20.33;7.00;;;;;;;;;;4906269;29;20222;-55
2024/01/17 00:30:09;;;;;;;16.50;7.13;;;;;;;;;;4905080;29;20184;-53
2024/01/17 00:32:35;;;;;;;23.00;8.33;;;;;;;;;;4899168;29;20499;-53
2024/01/17 00:35:02;;;;;;;25.97;8.07;;;;;;;;;;4910061;29;20429;-52
2024/01/17 00:37:28;;;;;;;20.27;7.53;;;;;;;;;;4909427;29;20294;-51
2024/01/17 00:39:54;;;;;;;22.70;7.97;;;;;;;;;;4913632;29;20543;-53
2024/01/17 00:42:20;;;;;;;27.37;7.60;;;;;;;;;;4913842;29;20222;-51
2024/01/17 00:44:46;;;;;;;25.63;8.00;;;;;;;;;;4913372;29;20222;-53
2024/01/17 00:47:12;;;;;;;26.13;8.57;;;;;;;;;;4909811;29;20204;-54
2024/01/17 00:49:41;;;;;;;23.90;8.47;;;;;;;;;;4894998;29;20188;-54
2024/01/17 00:52:07;;;;;;;28.07;8.53;;;;;;;;;;4906224;29;20416;-54
2024/01/17 00:54:33;;;;;;;27.67;9.60;;;;;;;;;;4906742;29;20421;-52
2024/01/17 00:56:59;;;;;;;28.70;8.90;;;;;;;;;;4912454;29;20507;-53
2024/01/17 00:59:25;;;;;;;28.27;8.67;;;;;;;;;;4913896;29;20191;-52
2024/01/17 01:01:51;;;;;;;27.13;9.60;;;;;;;;;;4913519;29;20468;-52
2024/01/17 01:04:17;;;;;;;21.50;8.30;;;;;;;;;;4912227;29;20641;-52
2024/01/17 01:06:43;;;;;;;26.70;8.70;;;;;;;;;;4896977;29;20343;-52
2024/01/17 01:09:10;;;;;;;22.90;8.23;;;;;;;;;;4910258;29;20192;-52
2024/01/17 01:11:36;;;;;;;24.37;8.27;;;;;;;;;;4909865;29;20192;-52
2024/01/17 01:14:02;;;;;;;23.07;8.67;;;;;;;;;;4910609;29;20436;-54
2024/01/17 01:16:29;;;;;;;26.87;8.27;;;;;;;;;;4901837;29;20476;-52
2024/01/17 01:18:55;;;;;;;26.83;8.80;;;;;;;;;;4894398;29;20525;-55
2024/01/17 01:21:20;;;;;;;32.37;9.57;;;;;;;;;;4907934;29;20929;-51
2024/01/17 01:23:47;;;;;;;21.07;7.63;;;;;;;;;;4905517;29;20432;-52
2024/01/17 01:26:14;;;;;;;26.60;8.00;;;;;;;;;;4901284;29;20311;-52
2024/01/17 01:28:40;;;;;;;17.27;7.10;;;;;;;;;;4910260;29;20420;-54
2024/01/17 01:31:06;;;;;;;25.23;7.90;;;;;;;;;;4913383;29;20420;-53
2024/01/17 01:33:32;;;;;;;21.90;6.47;;;;;;;;;;4906670;29;20775;-53
2024/01/17 01:35:58;;;;;;;23.50;6.67;;;;;;;;;;4901421;29;20486;-52
2024/01/17 01:38:24;;;;;;;18.70;6.63;;;;;;;;;;4908147;29;20656;-55
2024/01/17 01:40:50;;;;;;;20.53;7.53;;;;;;;;;;4905450;29;20192;-56
2024/01/17 01:43:19;;;;;;;28.50;8.27;;;;;;;;;;4913366;29;20259;-53
2024/01/17 01:46:21;;;;;;;24.67;7.77;;;;;;;;;;4896948;29;20579;-52
2024/01/17 01:48:48;;;;;;;21.97;7.40;;;;;;;;;;4872883;29;20433;-53
2024/01/17 01:51:14;;;;;;;27.67;7.10;;;;;;;;;;4905588;29;20416;-53
2024/01/17 01:53:42;;;;;;;26.40;7.87;;;;;;;;;;4917194;29;20420;-54
2024/01/17 01:56:08;;;;;;;17.40;6.57;;;;;;;;;;4916489;29;20416;-55
2024/01/17 01:58:36;;;;;;;23.13;8.13;;;;;;;;;;4909964;29;20798;-52
2024/01/17 02:01:03;;;;;;;27.93;7.60;;;;;;;;;;4900839;29;20250;-55
2024/01/17 02:03:30;;;;;;;24.03;8.40;;;;;;;;;;4902677;29;20507;-52
2024/01/17 02:05:56;;;;;;;22.37;7.30;;;;;;;;;;4904791;29;20447;-53
2024/01/17 02:08:22;;;;;;;19.33;6.93;;;;;;;;;;4905885;29;20924;-54
2024/01/17 02:10:48;;;;;;;29.07;8.07;;;;;;;;;;4905292;29;20506;-53
2024/01/17 02:13:14;;;;;;;20.47;7.30;;;;;;;;;;4904564;29;20935;-54
2024/01/17 02:15:40;;;;;;;18.27;7.57;;;;;;;;;;4905435;29;20201;-51
2024/01/17 02:18:06;;;;;;;21.37;7.77;;;;;;;;;;4901080;29;20939;-52
2024/01/17 02:20:32;;;;;;;23.10;7.43;;;;;;;;;;4908671;29;20487;-52
2024/01/17 02:22:58;;;;;;;21.20;8.27;;;;;;;;;;4916337;29;20479;-53
2024/01/17 02:25:24;;;;;;;21.67;7.97;;;;;;;;;;4910270;29;20204;-55
2024/01/17 02:27:50;;;;;;;21.27;7.47;;;;;;;;;;4905330;29;20215;-52
2024/01/17 02:30:16;;;;;;;19.73;6.73;;;;;;;;;;4905536;29;20664;-53
2024/01/17 02:32:44;;;;;;;17.77;7.27;;;;;;;;;;4905386;29;20664;-53
2024/01/17 02:35:10;;;;;;;27.87;7.77;;;;;;;;;;4907900;29;20183;-50
2024/01/17 02:37:36;;;;;;;26.87;7.90;;;;;;;;;;4916220;29;20456;-50
2024/01/17 02:40:02;;;;;;;25.73;7.77;;;;;;;;;;4897700;29;20189;-54
2024/01/17 02:42:28;;;;;;;23.17;7.77;;;;;;;;;;4903606;29;20216;-54
2024/01/17 02:44:54;;;;;;;20.87;7.03;;;;;;;;;;4915423;29;20434;-54
2024/01/17 02:47:20;;;;;;;28.27;8.00;;;;;;;;;;4916418;29;20231;-53
2024/01/17 02:49:46;;;;;;;27.83;9.23;;;;;;;;;;4907476;29;20192;-50
2024/01/17 02:52:12;;;;;;;23.03;7.23;;;;;;;;;;4909535;29;20435;-50
2024/01/17 02:54:38;;;;;;;23.73;8.03;;;;;;;;;;4908331;29;20451;-51
2024/01/17 02:57:04;;;;;;;30.53;8.53;;;;;;;;;;4899564;29;20289;-50
2024/01/17 02:59:30;;;;;;;30.07;9.13;;;;;;;;;;4909597;29;20631;-51
2024/01/17 03:01:58;;;;;;;22.20;7.60;;;;;;;;;;4898440;29;20560;-53
2024/01/17 03:04:24;;;;;;;25.40;7.70;;;;;;;;;;4907947;29;20180;-54
2024/01/17 03:06:51;;;;;;;29.47;8.77;;;;;;;;;;4907145;29;20467;-53
2024/01/17 03:09:17;;;;;;;28.23;8.00;;;;;;;;;;4908137;29;20280;-54
2024/01/17 03:11:43;;;;;;;19.57;7.63;;;;;;;;;;4915696;29;20439;-53
2024/01/17 03:14:08;;;;;;;22.10;8.47;;;;;;;;;;4907901;29;20450;-56
2024/01/17 03:16:36;;;;;;;23.27;8.77;;;;;;;;;;4907983;29;20220;-52
2024/01/17 03:19:02;;;;;;;29.97;8.63;;;;;;;;;;4914907;29;20275;-52
2024/01/17 03:21:28;;;;;;;29.83;7.60;;;;;;;;;;4907599;29;20915;-51
2024/01/17 03:23:54;;;;;;;26.10;8.13;;;;;;;;;;4915617;29;20427;-52
2024/01/17 03:26:21;;;;;;;29.60;8.80;;;;;;;;;;4907080;29;20440;-50
2024/01/17 03:28:46;;;;;;;22.93;7.17;;;;;;;;;;4914577;29;20428;-50
2024/01/17 03:31:12;;;;;;;19.50;7.77;;;;;;;;;;4908378;29;20463;-50
2024/01/17 03:33:38;;;;;;;22.73;7.90;;;;;;;;;;4915475;29;20211;-52
2024/01/17 03:36:05;;;;;;;29.37;7.43;;;;;;;;;;4911363;29;20189;-53
2024/01/17 03:38:31;;;;;;;19.93;7.27;;;;;;;;;;4903025;29;20227;-52
2024/01/17 03:41:00;;;;;;;19.23;7.33;;;;;;;;;;4905246;29;20954;-54
2024/01/17 03:43:26;;;;;;;24.57;6.80;;;;;;;;;;4904082;29;20919;-52
2024/01/17 03:45:54;;;;;;;22.80;7.27;;;;;;;;;;4912456;29;20463;-54
2024/01/17 03:48:20;;;;;;;18.17;6.80;;;;;;;;;;4909993;29;20633;-51
2024/01/17 03:50:46;;;;;;;28.67;7.10;;;;;;;;;;4896729;29;20421;-50
2024/01/17 03:53:12;;;;;;;18.17;6.03;;;;;;;;;;4910962;29;20184;-53
2024/01/17 03:55:38;;;;;;;27.17;6.73;;;;;;;;;;4910707;29;20199;-54
2024/01/17 03:58:04;;;;;;;22.40;5.43;;;;;;;;;;4905887;29;20211;-55
2024/01/17 04:00:30;;;;;;;21.50;6.30;;;;;;;;;;4907065;29;20214;-54
2024/01/17 04:02:56;;;;;;;21.57;7.73;;;;;;;;;;4914575;29;20216;-54
2024/01/17 04:05:22;;;;;;;21.77;7.37;;;;;;;;;;4908982;29;20242;-56
2024/01/17 04:07:48;;;;;;;20.80;6.23;;;;;;;;;;4895560;29;20228;-56
2024/01/17 04:10:14;;;;;;;20.97;6.83;;;;;;;;;;4914720;29;20460;-54
2024/01/17 04:12:39;;;;;;;20.23;6.10;;;;;;;;;;4914711;29;20427;-53
2024/01/17 04:15:06;;;;;;;30.47;6.47;;;;;;;;;;4905211;29;20436;-51
2024/01/17 04:17:32;;;;;;;22.93;6.30;;;;;;;;;;4914774;29;20219;-53
2024/01/17 04:19:58;;;;;;;22.00;7.00;;;;;;;;;;4898883;29;20428;-51
2024/01/17 04:22:24;;;;;;;23.37;6.87;;;;;;;;;;4906648;29;20478;-54
2024/01/17 04:24:50;;;;;;;25.43;5.63;;;;;;;;;;4911493;29;20274;-54
2024/01/17 04:27:16;;;;;;;23.40;6.50;;;;;;;;;;4895365;29;20929;-53
2024/01/17 04:29:42;;;;;;;24.40;6.73;;;;;;;;;;4903086;29;20272;-57
2024/01/17 04:32:08;;;;;;;21.13;6.73;;;;;;;;;;4903273;29;20199;-53
2024/01/17 04:34:34;;;;;;;17.33;6.13;;;;;;;;;;4903058;29;20796;-53
2024/01/17 04:37:01;;;;;;;29.73;7.80;;;;;;;;;;4902387;29;20324;-55
2024/01/17 04:39:27;;;;;;;24.97;6.43;;;;;;;;;;4895387;29;20630;-51
2024/01/17 04:41:53;;;;;;;20.87;6.80;;;;;;;;;;4896314;29;20476;-51
2024/01/17 04:44:19;;;;;;;23.10;5.83;;;;;;;;;;4906197;29;20203;-50
2024/01/17 04:46:46;;;;;;;24.03;6.33;;;;;;;;;;4897643;29;20639;-51
2024/01/17 04:49:12;;;;;;;23.00;6.57;;;;;;;;;;4902786;29;20213;-50
2024/01/17 04:51:38;;;;;;;24.17;5.97;;;;;;;;;;4902980;29;20773;-52
2024/01/17 04:54:04;;;;;;;23.87;6.47;;;;;;;;;;4910635;29;20231;-51
2024/01/17 04:56:30;;;;;;;18.50;6.43;;;;;;;;;;4902588;29;20220;-50
2024/01/17 04:58:56;;;;;;;26.07;6.53;;;;;;;;;;4904607;29;20227;-52
2024/01/17 05:01:22;;;;;;;26.60;5.93;;;;;;;;;;4900801;29;20508;-51
2024/01/17 05:03:48;;;;;;;21.73;5.83;;;;;;;;;;4895501;29;20456;-50
2024/01/17 05:06:14;;;;;;;25.87;6.40;;;;;;;;;;4913037;29;20829;-50
2024/01/17 05:08:40;;;;;;;30.00;6.30;;;;;;;;;;4906221;29;20780;-50
2024/01/17 05:11:06;;;;;;;27.73;6.10;;;;;;;;;;4913207;29;20435;-50
2024/01/17 05:13:32;;;;;;;18.13;6.50;;;;;;;;;;4906180;29;20674;-51
2024/01/17 05:15:58;;;;;;;24.57;6.50;;;;;;;;;;4897146;29;20224;-50
2024/01/17 05:18:24;;;;;;;23.43;6.43;;;;;;;;;;4908122;29;20201;-50
2024/01/17 05:20:50;;;;;;;32.17;7.10;;;;;;;;;;4903246;29;20192;-50
2024/01/17 05:23:16;;;;;;;29.63;6.03;;;;;;;;;;4913445;29;20212;-50
2024/01/17 05:25:42;;;;;;;20.83;5.97;;;;;;;;;;4912760;29;20187;-50
2024/01/17 05:28:08;;;;;;;20.80;7.00;;;;;;;;;;4910086;29;20255;-50
2024/01/17 05:30:34;;;;;;;20.40;6.03;;;;;;;;;;4894718;29;20552;-50
2024/01/17 05:33:00;;;;;;;15.50;5.63;;;;;;;;;;4912210;29;20430;-50
2024/01/17 05:35:27;;;;;;;24.67;6.00;;;;;;;;;;4912663;29;20203;-52
2024/01/17 05:37:53;;;;;;;20.57;6.23;;;;;;;;;;4896168;29;21048;-50
2024/01/17 05:40:19;;;;;;;20.50;6.37;;;;;;;;;;4897818;29;20429;-50
2024/01/17 05:42:45;;;;;;;31.47;6.80;;;;;;;;;;4909802;29;20781;-50
2024/01/17 05:45:11;;;;;;;20.77;5.87;;;;;;;;;;4901750;29;20181;-51
2024/01/17 05:47:38;;;;;;;20.77;7.07;;;;;;;;;;4909433;29;20432;-50
2024/01/17 05:50:11;;;;;;;21.40;5.80;;;;;;;;;;4898719;29;20427;-52
2024/01/17 05:52:40;;;;;;;18.77;6.13;;;;;;;;;;4906162;29;20503;-50
2024/01/17 05:55:07;;;;;;;30.30;8.00;;;;;;;;;;4904642;29;20420;-52
2024/01/17 05:57:33;;;;;;;26.43;6.70;;;;;;;;;;4905257;29;20471;-52
2024/01/17 05:59:59;;;;;;;22.07;7.40;;;;;;;;;;4911339;29;20916;-50
2024/01/17 06:02:25;;;;;;;23.47;7.27;;;;;;;;;;4899859;29;20559;-51
2024/01/17 06:04:51;;;;;;;27.57;7.60;;;;;;;;;;4912311;29;20519;-50
2024/01/17 06:07:18;;;;;;;22.47;7.40;;;;;;;;;;4908138;29;20603;-51
2024/01/17 06:09:44;;;;;;;27.27;7.53;;;;;;;;;;4894310;29;20807;-52
2024/01/17 06:12:10;;;;;;;27.97;8.03;;;;;;;;;;4901924;29;20421;-53
2024/01/17 06:14:36;;;;;;;27.47;8.40;;;;;;;;;;4901119;29;20483;-52
2024/01/17 06:17:02;;;;;;;25.47;8.60;;;;;;;;;;4902071;29;20497;-50
2024/01/17 06:19:28;;;;;;;26.77;7.37;;;;;;;;;;4901780;29;20428;-52
2024/01/17 06:21:54;;;;;;;25.97;7.90;;;;;;;;;;4901675;29;20468;-52
2024/01/17 06:24:20;;;;;;;28.00;7.20;;;;;;;;;;4898776;29;20511;-53
2024/01/17 06:26:46;;;;;;;24.30;8.33;;;;;;;;;;4904454;29;20208;-55
2024/01/17 06:29:12;;;;;;;25.67;7.73;;;;;;;;;;4901382;29;20216;-52
2024/01/17 06:31:38;;;;;;;26.27;8.40;;;;;;;;;;4901165;29;20688;-53
2024/01/17 06:34:04;;;;;;;33.10;8.27;;;;;;;;;;4905006;29;20200;-51
2024/01/17 06:36:30;;;;;;;27.77;8.60;;;;;;;;;;4898570;29;20220;-51
2024/01/17 06:38:56;;;;;;;28.67;8.67;;;;;;;;;;4906091;29;20432;-52
2024/01/17 06:41:22;;;;;;;35.87;8.83;;;;;;;;;;4908460;29;20659;-51
2024/01/17 06:43:48;;;;;;;28.13;8.57;;;;;;;;;;4916062;29;20192;-51
2024/01/17 06:46:14;;;;;;;29.30;9.27;;;;;;;;;;4903675;29;20298;-50
2024/01/17 06:48:40;;;;;;;29.90;9.53;;;;;;;;;;4912440;29;20210;-53
2024/01/17 06:51:06;;;;;;;30.87;9.43;;;;;;;;;;4908278;29;20938;-51
2024/01/17 06:53:32;;;;;;;36.57;9.37;;;;;;;;;;4903793;29;20427;-51
2024/01/17 06:55:58;;;;;;;29.07;10.00;;;;;;;;;;4913307;29;20431;-50
2024/01/17 06:58:24;;;;;;;26.53;9.30;;;;;;;;;;4910306;29;20829;-49
2024/01/17 07:00:50;;;;;;;27.63;8.23;;;;;;;;;;4899551;29;20227;-50
2024/01/17 07:03:16;;;;;;;29.00;9.23;;;;;;;;;;4901200;29;20207;-52
2024/01/17 07:05:42;;;;;;;26.87;9.80;;;;;;;;;;4914891;29;20275;-49
2024/01/17 07:08:08;;;;;;;34.90;11.63;;;;;;;;;;4907830;29;20211;-49
2024/01/17 07:10:36;;;;;;;38.07;10.97;;;;;;;;;;4909521;29;20768;-50
2024/01/17 07:13:02;;;;;;;27.27;10.47;;;;;;;;;;4896790;29;20433;-48
2024/01/17 07:15:29;;;;;;;37.90;10.57;;;;;;;;;;4902021;29;20424;-50
2024/01/17 07:17:55;;;;;;;33.77;10.57;;;;;;;;;;4906317;29;20298;-50
2024/01/17 07:20:21;;;;;;;31.57;11.07;;;;;;;;;;4897070;29;20465;-50
2024/01/17 07:22:47;;;;;;;34.73;10.90;;;;;;;;;;4904646;29;20219;-49
2024/01/17 07:25:16;;;;;;;33.73;11.00;;;;;;;;;;4914851;29;20603;-49
2024/01/17 07:27:43;;;;;;;51.10;15.63;;;;;;;;;;4907720;29;20440;-50
2024/01/17 07:30:10;;;;;;;36.60;13.17;;;;;;;;;;4907357;29;20800;-49
2024/01/17 07:32:36;;;;;;;44.53;14.10;;;;;;;;;;4907540;29;20787;-52
2024/01/17 07:35:03;;;;;;;41.07;12.63;;;;;;;;;;4904204;29;20436;-53
2024/01/17 07:37:29;;;;;;;41.57;15.70;;;;;;;;;;4910243;29;20463;-51
2024/01/17 07:39:55;;;;;;;39.90;14.83;;;;;;;;;;4915133;29;20423;-51
2024/01/17 07:42:21;;;;;;;46.33;13.73;;;;;;;;;;4910374;29;20994;-52
2024/01/17 07:44:48;;;;;;;37.87;12.33;;;;;;;;;;4903813;29;20652;-49
2024/01/17 07:47:15;;;;;;;39.80;11.87;;;;;;;;;;4911129;29;20212;-54
2024/01/17 07:49:41;;;;;;;29.20;9.80;;;;;;;;;;4903319;29;20893;-49
2024/01/17 07:52:07;;;;;;;25.27;8.43;;;;;;;;;;4911531;29;20420;-50
2024/01/17 07:54:33;;;;;;;29.73;9.33;;;;;;;;;;4902152;29;20200;-53
2024/01/17 07:56:59;;;;;;;28.70;10.10;;;;;;;;;;4905984;29;20452;-49
2024/01/17 07:59:27;;;;;;;35.60;10.40;;;;;;;;;;4909276;29;20512;-50
2024/01/17 08:01:53;;;;;;;33.90;10.47;;;;;;;;;;4904195;29;20896;-50
2024/01/17 08:04:20;;;;;;;42.07;12.97;;;;;;;;;;4914473;29;20494;-49
2024/01/17 08:06:46;;;;;;;33.80;10.60;;;;;;;;;;4905872;29;20455;-53
2024/01/17 08:09:21;;;;;;;35.67;12.00;;;;;;;;;;4910613;29;20425;-53
2024/01/17 08:11:51;;;;;;;32.97;11.60;;;;;;;;;;4895816;29;20424;-53
2024/01/17 08:14:17;;;;;;;38.30;12.40;;;;;;;;;;4902054;29;20417;-51
2024/01/17 08:16:44;;;;;;;39.93;11.83;;;;;;;;;;4908706;29;20498;-52
2024/01/17 08:19:10;;;;;;;31.40;10.60;;;;;;;;;;4906530;29;20199;-50
2024/01/17 08:21:36;;;;;;;28.37;10.20;;;;;;;;;;4898116;29;21051;-49
2024/01/17 08:24:02;;;;;;;29.40;9.57;;;;;;;;;;4910629;29;20998;-54
2024/01/17 08:26:28;;;;;;;26.00;9.10;;;;;;;;;;4900241;29;20999;-53
2024/01/17 08:28:54;;;;;;;28.87;10.50;;;;;;;;;;4913098;29;20428;-55
2024/01/17 08:31:20;;;;;;;33.40;10.97;;;;;;;;;;4907623;29;20803;-52
2024/01/17 08:33:46;;;;;;;32.23;9.57;;;;;;;;;;4897882;29;20511;-53
2024/01/17 08:36:14;;;;;;;36.53;10.80;;;;;;;;;;4897953;29;20192;-54
2024/01/17 08:38:40;;;;;;;35.77;11.73;;;;;;;;;;4898944;29;20480;-50
2024/01/17 08:41:07;;;;;;;27.73;10.57;;;;;;;;;;4904915;29;20419;-49
2024/01/17 08:43:33;;;;;;;35.30;11.03;;;;;;;;;;4898616;29;20475;-51
2024/01/17 08:46:00;;;;;;;39.60;11.07;;;;;;;;;;4893513;29;20816;-50
2024/01/17 08:48:26;;;;;;;34.17;10.17;;;;;;;;;;4899539;29;20450;-49
2024/01/17 08:50:52;;;;;;;30.20;10.93;;;;;;;;;;4896321;29;20924;-50
2024/01/17 08:53:19;;;;;;;31.70;11.47;;;;;;;;;;4893983;29;20185;-49
2024/01/17 08:55:45;;;;;;;34.93;12.40;;;;;;;;;;4909313;29;20423;-53
2024/01/17 08:58:11;;;;;;;35.37;11.80;;;;;;;;;;4893902;29;20879;-53
2024/01/17 09:00:37;;;;;;;32.10;12.40;;;;;;;;;;4893873;29;20420;-51
2024/01/17 09:03:04;;;;;;;36.37;12.13;;;;;;;;;;4893884;29;20900;-51
2024/01/17 09:05:30;;;;;;;34.80;13.07;;;;;;;;;;4901241;29;20436;-50
2024/01/17 09:07:57;;;;;;;27.23;10.77;;;;;;;;;;4910756;29;20927;-50
2024/01/17 09:10:23;;;;;;;28.83;11.13;;;;;;;;;;4912584;29;20428;-49
2024/01/17 09:12:50;;;;;;;31.87;11.50;;;;;;;;;;4904294;29;20530;-49
2024/01/17 09:15:16;;;;;;;34.80;12.87;;;;;;;;;;4901116;29;20428;-50
2024/01/17 09:17:42;;;;;;;57.20;24.77;;;;;;;;;;4900899;29;20504;-50
2024/01/17 09:20:08;;;;;;;30.87;12.87;;;;;;;;;;4904357;29;20467;-50
2024/01/17 09:22:34;;;;;;;39.80;13.13;;;;;;;;;;4898300;29;20228;-48
2024/01/17 09:25:00;;;;;;;34.63;11.53;;;;;;;;;;4902902;29;20440;-49
2024/01/17 09:27:27;;;;;;;37.80;12.60;;;;;;;;;;4905629;29;20448;-49
2024/01/17 09:29:53;;;;;;;42.10;15.40;;;;;;;;;;4901344;29;21181;-48
2024/01/17 09:32:19;;;;;;;40.97;14.53;;;;;;;;;;4901324;29;20440;-48
2024/01/17 09:34:47;;;;;;;38.10;14.13;;;;;;;;;;4893236;29;20192;-48
2024/01/17 09:37:14;;;;;;;37.73;14.33;;;;;;;;;;4897528;29;20504;-47
2024/01/17 09:39:40;;;;;;;35.23;13.83;;;;;;;;;;4912506;29;20799;-49
2024/01/17 09:42:06;;;;;;;31.77;12.47;;;;;;;;;;4904646;29;20474;-56
2024/01/17 09:44:33;;;;;;;36.70;13.50;;;;;;;;;;4898735;29;20192;-51
2024/01/17 09:47:00;;;;;;;41.50;14.13;;;;;;;;;;4900750;29;20467;-54
2024/01/17 09:49:28;;;;;;;33.07;12.67;;;;;;;;;;4898856;29;20442;-47
2024/01/17 09:51:55;;;;;;;32.47;15.10;;;;;;;;;;4904608;29;20428;-48
2024/01/17 09:54:26;;;;;;;40.73;15.40;;;;;;;;;;4908343;29;20425;-53
2024/01/17 09:56:54;;;;;;;48.73;15.53;;;;;;;;;;4901938;29;21016;-51
2024/01/17 09:59:27;;;;;;;46.10;15.07;;;;;;;;;;4912228;29;20847;-52
2024/01/17 10:01:53;;;;;;;39.50;14.97;;;;;;;;;;4912352;29;20897;-51
2024/01/17 10:04:20;;;;;;;38.57;13.23;;;;;;;;;;4924627;29;20423;-51
2024/01/17 10:06:48;;;;;;;39.33;14.17;;;;;;;;;;4906354;29;20672;-55
2024/01/17 10:09:14;;;;;;;30.63;13.87;;;;;;;;;;4907959;29;20472;-53
2024/01/17 10:11:40;;;;;;;34.30;13.47;;;;;;;;;;4892583;29;20428;-53
2024/01/17 10:14:07;;;;;;;40.47;15.80;;;;;;;;;;4897825;29;20947;-50
2024/01/17 10:16:34;;;;;;;35.70;14.33;;;;;;;;;;4908241;29;20936;-49
2024/01/17 10:19:03;;;;;;;40.83;16.03;;;;;;;;;;4905305;29;20427;-56
2024/01/17 10:21:31;;;;;;;47.47;16.33;;;;;;;;;;4901662;29;20602;-53
2024/01/17 10:23:57;;;;;;;42.20;16.93;;;;;;;;;;4895689;29;20472;-54
2024/01/17 10:26:23;;;;;;;49.83;19.60;;;;;;;;;;4893410;29;20532;-53
2024/01/17 10:28:51;;;;;;;50.20;17.27;;;;;;;;;;4903753;29;20334;-55
2024/01/17 10:31:20;;;;;;;48.20;17.87;;;;;;;;;;4903685;29;20424;-55
2024/01/17 10:33:46;;;;;;;47.67;17.43;;;;;;;;;;4911168;29;20911;-55
2024/01/17 10:36:12;;;;;;;48.77;15.60;;;;;;;;;;4895340;29;20976;-52
2024/01/17 10:38:39;;;;;;;36.77;15.03;;;;;;;;;;4902675;29;20499;-54
2024/01/17 10:41:05;;;;;;;33.20;14.33;;;;;;;;;;4906529;29;20480;-52
2024/01/17 10:43:31;;;;;;;36.73;14.37;;;;;;;;;;4914669;29;20546;-49
2024/01/17 10:46:01;;;;;;;34.30;14.13;;;;;;;;;;4904739;29;20419;-49
2024/01/17 10:48:27;;;;;;;38.20;15.00;;;;;;;;;;4901181;29;20471;-52
2024/01/17 10:50:56;;;;;;;38.40;14.90;;;;;;;;;;4896203;29;20468;-52
2024/01/17 10:53:22;;;;;;;28.83;12.73;;;;;;;;;;4901985;29;20574;-50
2024/01/17 10:55:50;;;;;;;30.80;14.03;;;;;;;;;;4894769;29;20433;-49
2024/01/17 10:58:18;;;;;;;32.73;13.27;;;;;;;;;;4906508;29;20839;-49
2024/01/17 11:00:45;;;;;;;32.00;13.00;;;;;;;;;;4898833;29;20433;-49
2024/01/17 11:03:15;;;;;;;37.37;14.37;;;;;;;;;;4913616;29;20463;-51
2024/01/17 11:05:47;;;;;;;32.57;14.83;;;;;;;;;;4860272;29;1133690;-49
2024/01/17 11:08:15;;;;;;;34.13;13.77;;;;;;;;;;4907047;29;20832;-50
2024/01/17 11:10:43;;;;;;;32.50;14.23;;;;;;;;;;4900078;29;20799;-48
2024/01/17 11:13:10;;;;;;;38.10;14.77;;;;;;;;;;4906975;29;20431;-51
2024/01/17 11:15:38;;;;;;;39.50;16.20;;;;;;;;;;4907821;29;20452;-49
2024/01/17 11:18:05;;;;;;;40.17;16.17;;;;;;;;;;4898238;29;20449;-50
2024/01/17 11:20:31;;;;;;;40.23;16.60;;;;;;;;;;4914914;29;20420;-48
2024/01/17 11:22:57;;;;;;;33.80;15.43;;;;;;;;;;4898706;29;21061;-48
2024/01/17 11:25:23;;;;;;;36.33;15.30;;;;;;;;;;4900992;29;20783;-50
2024/01/17 11:28:05;;;;;;;35.47;15.13;;;;;;;;;;4903111;29;20467;-51
2024/01/17 11:30:40;;;;;;;43.37;16.63;;;;;;;;;;4901494;29;20569;-50
2024/01/17 11:33:11;;;;;;;43.13;18.10;;;;;;;;;;4904778;29;20427;-52
2024/01/17 11:35:50;;;;;;;38.60;16.23;;;;;;;;;;4901040;29;20603;-49
2024/01/17 11:38:25;;;;;;;40.40;16.07;;;;;;;;;;4895612;29;20448;-50
2024/01/17 11:40:51;;;;;;;41.50;16.07;;;;;;;;;;4903679;29;20420;-48
2024/01/17 11:43:21;;;;;;;42.83;19.23;;;;;;;;;;4895024;29;20469;-49
2024/01/17 11:45:56;;;;;;;37.07;18.30;;;;;;;;;;4909781;29;20959;-51
2024/01/17 11:48:25;;;;;;;41.23;17.77;;;;;;;;;;4904129;29;20434;-50
2024/01/17 11:51:15;;;;;;;37.73;16.93;;;;;;;;;;4903500;29;20510;-48
2024/01/17 11:53:41;;;;;;;37.97;17.77;;;;;;;;;;4895345;29;20432;-51
2024/01/17 11:56:09;;;;;;;44.27;17.90;;;;;;;;;;4903184;29;20819;-52
2024/01/17 11:58:42;;;;;;;44.63;16.97;;;;;;;;;;4903648;29;20413;-51
2024/01/17 12:01:10;;;;;;;38.63;16.57;;;;;;;;;;4905865;29;20416;-50
2024/01/17 12:03:36;;;;;;;41.10;17.13;;;;;;;;;;4914344;29;20539;-50
2024/01/17 12:06:02;;;;;;;42.40;18.00;;;;;;;;;;4905408;29;20432;-52
2024/01/17 12:08:28;;;;;;;36.77;17.50;;;;;;;;;;4914482;29;20491;-51
2024/01/17 12:10:55;;;;;;;40.40;17.40;;;;;;;;;;4910334;29;20425;-52
2024/01/17 12:13:24;;;;;;;46.60;17.57;;;;;;;;;;4906197;29;20424;-52
2024/01/17 12:15:54;;;;;;;39.67;16.10;;;;;;;;;;4902757;29;20508;-52
2024/01/17 12:18:24;;;;;;;34.33;16.63;;;;;;;;;;4910081;29;20417;-52
2024/01/17 12:20:51;;;;;;;40.70;17.93;;;;;;;;;;4902850;29;20427;-52
2024/01/17 12:23:19;;;;;;;40.93;17.27;;;;;;;;;;4906918;29;20468;-52
2024/01/17 12:25:45;;;;;;;45.20;18.07;;;;;;;;;;4913349;29;20423;-52
2024/01/17 12:28:11;;;;;;;44.83;19.47;;;;;;;;;;4898266;29;20452;-50
2024/01/17 12:30:39;;;;;;;41.80;18.27;;;;;;;;;;4913999;29;20214;-49
2024/01/17 12:33:05;;;;;;;38.67;18.77;;;;;;;;;;4898019;29;20433;-51
2024/01/17 12:35:31;;;;;;;45.53;19.03;;;;;;;;;;4905017;29;20479;-53
2024/01/17 12:37:56;;;;;;;40.07;17.17;;;;;;;;;;4913595;29;20451;-53
2024/01/17 12:40:22;;;;;;;37.00;17.37;;;;;;;;;;4912149;29;20286;-52
2024/01/17 12:42:49;;;;;;;35.77;16.97;;;;;;;;;;4905858;29;20742;-54
2024/01/17 12:45:16;;;;;;;35.67;16.17;;;;;;;;;;4897605;29;20520;-51
2024/01/17 12:47:42;;;;;;;37.63;16.67;;;;;;;;;;4906564;29;20509;-48
2024/01/17 12:50:08;;;;;;;39.83;15.43;;;;;;;;;;4897288;29;20425;-49
2024/01/17 12:52:35;;;;;;;44.17;19.03;;;;;;;;;;4905776;29;20232;-51
2024/01/17 12:55:02;;;;;;;43.10;17.13;;;;;;;;;;4903567;29;20789;-48
2024/01/17 12:57:28;;;;;;;42.23;16.63;;;;;;;;;;4907684;29;20451;-48
2024/01/17 12:59:54;;;;;;;40.67;16.73;;;;;;;;;;4905400;29;20424;-50
2024/01/17 13:02:20;;;;;;;39.93;16.30;;;;;;;;;;4903488;29;20679;-50
2024/01/17 13:05:06;;;;;;;41.73;16.43;;;;;;;;;;4899715;29;20431;-48
2024/01/17 13:07:32;;;;;;;38.37;16.97;;;;;;;;;;4907796;29;20223;-49
2024/01/17 13:09:58;;;;;;;44.73;18.53;;;;;;;;;;4913210;29;20424;-48
2024/01/17 13:12:24;;;;;;;42.90;18.20;;;;;;;;;;4913201;29;20620;-49
2024/01/17 13:14:50;;;;;;;43.60;18.97;;;;;;;;;;4904743;29;20678;-48
2024/01/17 13:17:18;;;;;;;42.20;19.40;;;;;;;;;;4909495;29;20595;-49
2024/01/17 13:19:44;;;;;;;43.60;17.87;;;;;;;;;;4894267;29;20200;-49
2024/01/17 13:22:12;;;;;;;41.73;18.07;;;;;;;;;;4912430;29;20483;-52
2024/01/17 13:24:40;;;;;;;39.90;16.93;;;;;;;;;;4913055;29;20420;-48
2024/01/17 13:27:06;;;;;;;38.47;16.83;;;;;;;;;;4908854;29;20530;-52
2024/01/17 13:29:32;;;;;;;38.80;18.30;;;1.10;99.90;;;;;;4907919;29;20290;-49
2024/01/17 13:31:57;;;;;;;40.10;18.30;;;-1.90;99.90;;;;;;4912791;29;20436;-49
2024/01/17 13:34:23;;;;;;;51.57;20.77;;;-1.90;99.90;;;;;;4908748;29;20286;-48
2024/01/17 13:36:49;;;;;;;48.97;20.27;;;-1.90;99.90;;;;;;4909095;29;20219;-51
2024/01/17 13:39:14;;;;;;;43.30;18.60;;;-1.90;99.90;;;;;;4897437;29;20236;-48
2024/01/17 13:41:41;;;;;;;37.90;18.07;;;-1.90;99.90;;;;;;4912772;29;20200;-49
2024/01/17 13:44:07;;;;;;;45.40;19.80;;;-1.80;99.90;;;;;;4902855;29;20203;-50
2024/01/17 13:46:36;;;;;;;44.33;21.43;;;-1.80;99.90;;;;;;4894077;29;21007;-51
2024/01/17 13:49:01;;;;;;;54.20;24.40;;;-1.80;99.90;;;;;;4899532;29;20949;-54
2024/01/17 13:51:30;;;;;;;67.67;27.83;;;-1.70;99.90;;;;;;4903942;29;20508;-52
2024/01/17 13:53:56;;;;;;;64.30;26.13;;;-1.70;99.90;;;;;;4898509;29;20239;-50
2024/01/17 13:56:22;;;;;;;74.10;28.70;;;-1.70;99.90;;;;;;4908574;29;20230;-52
2024/01/17 13:58:47;;;;;;;61.63;26.97;;;-1.70;99.90;;;;;;4916673;29;20187;-49
2024/01/17 14:01:18;;;;;;;65.03;24.77;;;-1.70;99.90;;;;;;4908586;29;20659;-49
2024/01/17 14:03:43;;;;;;;48.57;21.37;;;-1.70;99.90;;;;;;4908738;29;20588;-50
2024/01/17 14:06:09;;;;;;;53.70;21.30;;;-1.70;99.90;;;;;;4912787;29;20295;-48
2024/01/17 14:08:34;;;;;;;47.47;20.17;;;-1.70;99.90;;;;;;4897431;29;20291;-52
2024/01/17 14:11:00;;;;;;;45.63;19.13;;;-1.70;99.90;;;;;;4906654;29;20277;-52
2024/01/17 14:13:26;;;;;;;41.17;17.53;;;-1.60;99.90;;;;;;4916256;29;20615;-51
2024/01/17 14:15:51;;;;;;;39.20;17.60;;;-1.60;99.90;;;;;;4915475;29;20660;-52